createdAt,value
2018-01-13T00:00:49.885Z,94.34
2018-01-13T00:03:17.716Z,94.33
2018-01-13T00:05:45.370Z,94.27
2018-01-13T00:08:12.953Z,94.26
2018-01-13T00:10:40.548Z,94.16
2018-01-13T00:13:08.378Z,94.21
2018-01-13T00:15:36.176Z,94.21
2018-01-13T00:18:04.116Z,94.16
2018-01-13T00:20:32.460Z,94.14
2018-01-13T00:23:00.447Z,94.08
2018-01-13T00:25:28.579Z,93.98
2018-01-13T00:27:56.560Z,94.03
2018-01-13T00:30:24.642Z,94.05
2018-01-13T00:32:52.873Z,94.06
2018-01-13T00:35:21.233Z,93.81
2018-01-13T00:37:49.338Z,93.86
2018-01-13T00:40:16.964Z,93.92
2018-01-13T00:42:44.670Z,94.01
2018-01-13T00:45:12.229Z,94.02
2018-01-13T00:47:39.784Z,93.98
2018-01-13T00:50:07.432Z,94.02
2018-01-13T00:52:35.033Z,94.09
2018-01-13T00:55:03.059Z,94.17
2018-01-13T00:57:30.755Z,94.18
2018-01-13T00:59:58.668Z,94.11
2018-01-13T01:02:26.301Z,94.13
2018-01-13T01:04:53.907Z,94.04
2018-01-13T01:07:21.866Z,94.04
2018-01-13T01:09:49.457Z,94.00
2018-01-13T01:12:17.007Z,93.99
2018-01-13T01:14:44.657Z,94.05
2018-01-13T01:17:12.297Z,94.09
2018-01-13T01:19:39.886Z,94.10
2018-01-13T01:22:07.487Z,94.16
2018-01-13T01:24:35.181Z,94.12
2018-01-13T01:27:02.733Z,94.11
2018-01-13T01:29:30.328Z,94.12
2018-01-13T01:31:58.240Z,94.17
2018-01-13T01:34:25.837Z,94.27
2018-01-13T01:36:53.466Z,94.23
2018-01-13T01:39:21.096Z,94.34
2018-01-13T01:41:48.737Z,94.36
2018-01-13T01:44:16.363Z,94.36
2018-01-13T01:46:44.266Z,94.39
2018-01-13T01:49:11.932Z,94.37
2018-01-13T01:51:39.536Z,94.35
2018-01-13T01:54:07.224Z,94.36
2018-01-13T01:56:34.802Z,94.33
2018-01-13T01:59:02.671Z,94.34
2018-01-13T02:01:30.248Z,94.32
2018-01-13T02:03:58.038Z,94.28
2018-01-13T02:06:25.759Z,94.37
2018-01-13T02:08:53.350Z,94.36
2018-01-13T02:11:21.025Z,94.37
2018-01-13T02:13:48.708Z,94.40
2018-01-13T02:16:16.821Z,94.37
2018-01-13T02:18:44.519Z,94.33
2018-01-13T02:21:12.135Z,94.33
2018-01-13T02:23:39.818Z,94.37
2018-01-13T02:26:07.693Z,94.42
2018-01-13T02:28:35.311Z,94.43
2018-01-13T02:31:03.118Z,94.45
2018-01-13T02:33:31.040Z,94.46
2018-01-13T02:35:58.705Z,94.53
2018-01-13T02:38:26.331Z,94.67
2018-01-13T02:40:53.940Z,94.72
2018-01-13T02:43:21.564Z,94.78
2018-01-13T02:45:49.159Z,94.79
2018-01-13T02:48:16.787Z,94.69
2018-01-13T02:50:44.616Z,94.72
2018-01-13T02:53:12.520Z,94.54
2018-01-13T02:55:40.087Z,94.48
2018-01-13T02:58:07.909Z,94.69
2018-01-13T03:00:35.470Z,94.80
2018-01-13T03:03:03.057Z,95.04
2018-01-13T03:05:30.855Z,95.06
2018-01-13T03:07:58.502Z,95.15
2018-01-13T03:10:26.140Z,95.20
2018-01-13T03:12:54.088Z,95.16
2018-01-13T03:15:22.057Z,95.17
2018-01-13T03:17:49.687Z,95.10
2018-01-13T03:20:17.377Z,95.23
2018-01-13T03:22:44.983Z,95.29
2018-01-13T03:25:12.544Z,95.31
2018-01-13T03:27:40.166Z,95.36
2018-01-13T03:30:07.801Z,95.34
2018-01-13T03:32:35.428Z,95.41
2018-01-13T03:35:03.063Z,95.39
2018-01-13T03:37:30.664Z,95.38
2018-01-13T03:39:58.226Z,95.43
2018-01-13T03:42:25.842Z,95.50
2018-01-13T03:44:53.401Z,95.68
2018-01-13T03:47:21.045Z,95.68
2018-01-13T03:49:48.637Z,95.68
2018-01-13T03:52:16.216Z,95.73
2018-01-13T03:54:43.852Z,95.71
2018-01-13T03:57:11.474Z,95.72
2018-01-13T03:59:39.073Z,95.82
2018-01-13T04:02:06.932Z,95.80
2018-01-13T04:04:34.483Z,95.79
2018-01-13T04:07:02.143Z,95.83
2018-01-13T04:09:30.005Z,95.90
2018-01-13T04:11:57.606Z,95.98
2018-01-13T04:14:25.161Z,95.97
2018-01-13T04:16:52.749Z,95.93
2018-01-13T04:19:20.578Z,95.91
2018-01-13T04:21:48.171Z,95.84
2018-01-13T04:24:15.844Z,95.83
2018-01-13T04:26:43.465Z,95.84
2018-01-13T04:29:11.067Z,95.79
2018-01-13T04:31:38.729Z,95.79
2018-01-13T04:34:06.351Z,95.89
2018-01-13T04:36:33.903Z,95.90
2018-01-13T04:39:01.694Z,95.84
2018-01-13T04:41:29.355Z,95.86
2018-01-13T04:43:56.922Z,95.88
2018-01-13T04:46:24.580Z,95.84
2018-01-13T04:48:52.376Z,95.84
2018-01-13T04:51:20.559Z,95.77
2018-01-13T04:53:48.153Z,95.82
2018-01-13T04:56:16.107Z,95.82
2018-01-13T04:58:43.685Z,95.77
2018-01-13T05:01:11.240Z,95.76
2018-01-13T05:03:39.202Z,95.76
2018-01-13T05:06:06.793Z,95.77
2018-01-13T05:08:34.658Z,95.72
2018-01-13T05:11:02.284Z,95.72
2018-01-13T05:13:30.156Z,95.70
2018-01-13T05:15:58.126Z,95.70
2018-01-13T05:18:26.385Z,95.70
2018-01-13T05:20:53.979Z,95.64
2018-01-13T05:23:21.820Z,95.57
2018-01-13T05:25:49.474Z,95.54
2018-01-13T05:28:17.084Z,95.54
2018-01-13T05:30:44.795Z,95.57
2018-01-13T05:33:12.360Z,95.54
2018-01-13T05:35:40.220Z,95.51
2018-01-13T05:38:08.360Z,95.50
2018-01-13T05:40:36.263Z,95.42
2018-01-13T05:43:03.892Z,95.30
2018-01-13T05:45:31.773Z,95.33
2018-01-13T05:47:59.371Z,95.25
2018-01-13T05:50:26.968Z,95.33
2018-01-13T05:52:54.641Z,95.42
2018-01-13T05:55:22.209Z,95.43
2018-01-13T05:57:50.115Z,95.43
2018-01-13T06:00:17.762Z,95.42
2018-01-13T06:02:45.518Z,95.44
2018-01-13T06:05:13.409Z,95.43
2018-01-13T06:07:41.062Z,95.29
2018-01-13T06:10:08.634Z,95.17
2018-01-13T06:12:36.282Z,95.19
2018-01-13T06:15:03.902Z,95.33
2018-01-13T06:20:05.934Z,95.44
2018-01-13T06:22:33.545Z,95.35
2018-01-13T06:25:01.102Z,95.35
2018-01-13T06:27:28.927Z,95.34
2018-01-13T06:29:56.868Z,95.32
2018-01-13T06:32:24.758Z,95.21
2018-01-13T06:34:52.356Z,95.23
2018-01-13T06:37:20.397Z,95.15
2018-01-13T06:39:48.020Z,95.19
2018-01-13T06:42:15.577Z,95.23
2018-01-13T06:44:43.585Z,95.27
2018-01-13T06:47:11.192Z,95.23
2018-01-13T06:49:38.824Z,95.28
2018-01-13T06:52:06.415Z,95.26
2018-01-13T06:54:34.088Z,95.31
2018-01-13T06:57:02.000Z,95.26
2018-01-13T06:59:29.565Z,95.26
2018-01-13T07:01:57.137Z,95.30
2018-01-13T07:04:24.759Z,95.37
2018-01-13T07:06:52.362Z,95.16
2018-01-13T07:09:20.184Z,95.17
2018-01-13T07:11:48.075Z,95.25
2018-01-13T07:14:15.935Z,95.24
2018-01-13T07:16:43.554Z,95.21
2018-01-13T07:19:11.185Z,95.15
2018-01-13T07:21:38.767Z,95.21
2018-01-13T07:24:06.393Z,95.17
2018-01-13T07:26:34.021Z,95.21
2018-01-13T07:29:01.648Z,95.16
2018-01-13T07:31:29.255Z,95.18
2018-01-13T07:33:56.902Z,95.18
2018-01-13T07:36:24.807Z,95.14
2018-01-13T07:38:52.609Z,94.94
2018-01-13T07:41:20.261Z,94.99
2018-01-13T07:43:49.893Z,94.88
2018-01-13T07:46:17.478Z,94.93
2018-01-13T07:48:45.436Z,94.88
2018-01-13T07:51:13.255Z,94.93
2018-01-13T07:53:40.809Z,94.91
2018-01-13T07:56:08.440Z,94.87
2018-01-13T07:58:36.127Z,94.93
2018-01-13T08:01:03.981Z,94.93
2018-01-13T08:03:31.708Z,94.94
2018-01-13T08:05:59.717Z,94.83
2018-01-13T08:08:27.326Z,94.82
2018-01-13T08:10:54.950Z,94.66
2018-01-13T08:13:22.741Z,94.50
2018-01-13T08:15:50.322Z,94.63
2018-01-13T08:18:17.937Z,94.61
2018-01-13T08:20:46.457Z,94.65
2018-01-13T08:23:14.390Z,94.65
2018-01-13T08:25:42.035Z,94.93
2018-01-13T08:28:09.592Z,95.02
2018-01-13T08:30:37.462Z,95.04
2018-01-13T08:33:05.137Z,95.09
2018-01-13T08:35:33.043Z,95.11
2018-01-13T08:38:00.702Z,95.13
2018-01-13T08:40:28.306Z,95.07
2018-01-13T08:42:56.230Z,95.01
2018-01-13T08:45:23.812Z,94.92
2018-01-13T08:47:51.426Z,94.86
2018-01-13T08:50:18.990Z,94.97
2018-01-13T08:52:46.633Z,95.09
2018-01-13T08:55:14.302Z,95.08
2018-01-13T08:57:41.966Z,94.94
2018-01-13T09:00:09.584Z,94.92
2018-01-13T09:02:39.907Z,94.92
2018-01-13T09:05:07.810Z,94.86
2018-01-13T09:07:35.364Z,94.99
2018-01-13T09:10:03.029Z,95.02
2018-01-13T09:12:30.694Z,95.08
2018-01-13T09:14:58.544Z,95.03
2018-01-13T09:17:26.382Z,94.81
2018-01-13T09:19:54.015Z,94.72
2018-01-13T09:22:21.630Z,94.45
2018-01-13T09:24:49.247Z,94.47
2018-01-13T09:27:17.292Z,94.54
2018-01-13T09:29:44.869Z,94.64
2018-01-13T09:32:12.525Z,94.60
2018-01-13T09:34:40.131Z,94.57
2018-01-13T09:37:07.984Z,94.53
2018-01-13T09:39:35.568Z,94.30
2018-01-13T09:42:03.192Z,94.27
2018-01-13T09:44:30.868Z,94.29
2018-01-13T09:46:58.663Z,94.05
2018-01-13T09:49:26.310Z,93.84
2018-01-13T09:51:53.869Z,93.97
2018-01-13T09:54:21.426Z,94.06
2018-01-13T09:56:49.013Z,93.88
2018-01-13T09:59:16.604Z,93.75
2018-01-13T10:01:44.567Z,93.73
2018-01-13T10:04:12.154Z,93.73
2018-01-13T10:06:40.210Z,93.39
2018-01-13T10:09:07.913Z,93.36
2018-01-13T10:11:35.586Z,92.98
2018-01-13T10:14:03.206Z,92.99
2018-01-13T10:16:30.810Z,93.03
2018-01-13T10:18:58.429Z,93.14
2018-01-13T10:21:26.024Z,93.13
2018-01-13T10:23:54.356Z,93.12
2018-01-13T10:26:22.879Z,93.06
2018-01-13T10:28:50.462Z,92.66
2018-01-13T10:31:18.095Z,92.60
2018-01-13T10:33:46.014Z,92.61
2018-01-13T10:36:13.578Z,92.42
2018-01-13T10:38:41.338Z,92.35
2018-01-13T10:41:09.098Z,92.42
2018-01-13T10:43:36.661Z,92.49
2018-01-13T10:46:04.274Z,92.01
2018-01-13T10:48:31.894Z,92.10
2018-01-13T10:50:59.955Z,92.08
2018-01-13T10:53:27.554Z,92.23
2018-01-13T10:55:55.108Z,92.13
2018-01-13T10:58:22.735Z,91.95
2018-01-13T11:00:50.318Z,91.94
2018-01-13T11:03:17.999Z,91.55
2018-01-13T11:05:45.606Z,91.52
2018-01-13T11:08:13.308Z,90.67
2018-01-13T11:10:40.954Z,90.64
2018-01-13T11:13:08.561Z,90.52
2018-01-13T11:15:36.574Z,90.24
2018-01-13T11:18:04.170Z,90.24
2018-01-13T11:20:32.102Z,89.39
2018-01-13T11:22:59.661Z,89.19
2018-01-13T11:25:27.299Z,89.62
2018-01-13T11:27:54.867Z,88.68
2018-01-13T11:30:22.796Z,88.40
2018-01-13T11:32:50.427Z,88.37
2018-01-13T11:35:18.033Z,88.66
2018-01-13T11:37:46.033Z,88.65
2018-01-13T11:40:13.653Z,88.44
2018-01-13T11:42:41.579Z,87.97
2018-01-13T11:45:09.178Z,88.23
2018-01-13T11:47:36.820Z,88.21
2018-01-13T11:50:04.718Z,87.31
2018-01-13T11:52:32.290Z,87.37
2018-01-13T11:55:00.212Z,87.52
2018-01-13T12:00:50.022Z,86.76
2018-01-13T12:03:29.528Z,86.40
2018-01-13T12:28:07.222Z,86.74
2018-01-13T12:30:35.386Z,87.11
2018-01-13T12:36:16.050Z,87.34
2018-01-13T12:41:51.586Z,86.29
2018-01-13T12:44:19.248Z,85.57
2018-01-13T12:46:49.200Z,85.63
2018-01-13T12:49:30.970Z,85.43
2018-01-13T12:52:08.178Z,84.97
2018-01-13T13:01:01.598Z,84.92
2018-01-13T13:03:29.237Z,84.87
2018-01-13T13:05:56.887Z,84.88
2018-01-13T13:08:24.452Z,85.39
2018-01-13T13:11:16.484Z,85.51
2018-01-13T13:13:44.484Z,85.63
2018-01-13T13:16:17.727Z,85.23
2018-01-13T13:18:45.287Z,85.30
2018-01-13T13:35:02.211Z,85.48
2018-01-13T13:37:30.788Z,85.69
2018-01-13T13:39:58.416Z,85.64
2018-01-13T13:42:26.710Z,85.07
2018-01-13T13:44:54.265Z,85.29
2018-01-13T13:47:21.961Z,85.60
2018-01-13T13:49:49.852Z,85.36
2018-01-13T13:52:18.665Z,85.46
2018-01-13T13:55:01.112Z,85.30
2018-01-13T13:57:28.883Z,84.83
2018-01-13T14:00:07.542Z,85.23
2018-01-13T14:02:35.562Z,85.30
2018-01-13T14:05:03.978Z,84.99
2018-01-13T14:07:31.823Z,85.03
2018-01-13T14:10:01.148Z,84.64
2018-01-13T14:12:27.079Z,84.95
2018-01-13T14:14:54.988Z,85.31
2018-01-13T14:17:22.602Z,85.50
2018-01-13T14:19:57.409Z,85.79
2018-01-13T14:23:11.422Z,86.09
2018-01-13T14:25:39.351Z,85.74
2018-01-13T14:28:07.366Z,85.43
2018-01-13T14:30:47.916Z,85.94
2018-01-13T14:33:15.609Z,85.44
2018-01-13T14:35:43.291Z,85.38
2018-01-13T14:38:10.929Z,85.04
2018-01-13T14:40:41.810Z,85.12
2018-01-13T14:43:09.838Z,85.31
2018-01-13T14:46:08.251Z,85.44
2018-01-13T14:48:49.098Z,85.12
2018-01-13T14:51:21.909Z,85.07
2018-01-13T14:53:59.694Z,84.84
2018-01-13T14:56:39.578Z,84.97
2018-01-13T15:01:53.947Z,85.26
2018-01-13T15:04:26.933Z,85.35
2018-01-13T15:07:01.839Z,85.58
2018-01-13T15:09:31.077Z,85.62
2018-01-13T15:11:58.661Z,85.59
2018-01-13T15:14:26.261Z,85.25
2018-01-13T15:16:53.886Z,85.16
2018-01-13T15:19:21.493Z,85.11
2018-01-13T15:21:49.126Z,85.25
2018-01-13T15:24:17.129Z,85.27
2018-01-13T15:26:44.852Z,85.27
2018-01-13T15:29:12.598Z,85.60
2018-01-13T15:31:40.571Z,85.65
2018-01-13T15:34:08.166Z,85.32
2018-01-13T15:36:35.818Z,85.32
2018-01-13T15:39:03.562Z,85.47
2018-01-13T15:41:31.445Z,85.27
2018-01-13T15:43:59.004Z,85.50
2018-01-13T15:46:26.672Z,85.36
2018-01-13T15:48:54.239Z,85.60
2018-01-13T15:51:22.041Z,85.42
2018-01-13T15:53:49.897Z,85.67
2018-01-13T15:56:17.482Z,85.66
2018-01-13T15:58:45.167Z,85.76
2018-01-13T16:01:13.039Z,85.87
2018-01-13T16:03:40.628Z,85.85
2018-01-13T16:06:08.253Z,86.00
2018-01-13T16:08:35.873Z,85.92
2018-01-13T16:11:03.517Z,85.80
2018-01-13T16:13:31.230Z,85.73
2018-01-13T16:15:58.867Z,85.95
2018-01-13T16:18:26.478Z,85.86
2018-01-13T16:20:54.079Z,86.12
2018-01-13T16:23:21.960Z,86.21
2018-01-13T16:25:49.812Z,85.97
2018-01-13T16:28:17.559Z,86.09
2018-01-13T16:30:45.186Z,86.29
2018-01-13T16:33:12.749Z,86.21
2018-01-13T16:35:41.044Z,86.23
2018-01-13T16:38:08.644Z,86.23
2018-01-13T16:40:36.218Z,86.03
2018-01-13T16:43:04.240Z,86.30
2018-01-13T16:45:31.907Z,86.47
2018-01-13T16:47:59.635Z,86.61
2018-01-13T16:50:27.679Z,86.59
2018-01-13T16:52:55.258Z,86.67
2018-01-13T16:55:22.861Z,86.67
2018-01-13T16:57:50.558Z,86.69
2018-01-13T17:00:18.314Z,86.83
2018-01-13T17:02:46.345Z,86.77
2018-01-13T17:05:13.977Z,86.71
2018-01-13T17:07:41.549Z,86.54
2018-01-13T17:10:09.176Z,86.76
2018-01-13T17:12:36.772Z,86.57
2018-01-13T17:15:04.425Z,86.67
2018-01-13T17:17:32.249Z,86.71
2018-01-13T17:19:59.841Z,86.67
2018-01-13T17:22:27.431Z,86.57
2018-01-13T17:24:55.082Z,85.89
2018-01-13T17:27:22.690Z,86.45
2018-01-13T17:29:50.328Z,86.22
2018-01-13T17:32:18.022Z,85.97
2018-01-13T17:34:45.594Z,85.99
2018-01-13T17:37:13.477Z,85.95
2018-01-13T17:39:41.145Z,86.21
2018-01-13T17:42:08.988Z,86.11
2018-01-13T17:44:38.854Z,86.26
2018-01-13T17:47:09.637Z,86.18
2018-01-13T17:49:37.287Z,86.34
2018-01-13T17:52:12.467Z,86.22
2018-01-13T17:54:41.396Z,86.16
2018-01-13T17:57:09.152Z,86.24
2018-01-13T17:59:37.514Z,86.33
2018-01-13T18:02:05.600Z,86.34
2018-01-13T18:04:33.236Z,86.28
2018-01-13T18:07:03.328Z,86.36
2018-01-13T18:09:32.034Z,86.47
2018-01-13T18:11:59.714Z,86.19
2018-01-13T18:14:43.979Z,86.05
2018-01-13T18:17:15.019Z,85.51
2018-01-13T18:19:44.647Z,85.87
2018-01-13T18:22:12.983Z,85.60
2018-01-13T18:24:40.703Z,85.65
2018-01-13T18:27:08.339Z,85.88
2018-01-13T18:29:36.254Z,85.61
2018-01-13T18:32:03.833Z,85.70
2018-01-13T18:34:32.186Z,85.65
2018-01-13T18:36:59.759Z,85.52
2018-01-13T18:39:27.358Z,85.93
2018-01-13T18:41:55.017Z,86.09
2018-01-13T18:44:22.685Z,85.52
2018-01-13T18:46:51.295Z,85.74
2018-01-13T18:49:19.288Z,85.74
2018-01-13T18:51:46.936Z,85.93
2018-01-13T18:54:14.512Z,86.16
2018-01-13T18:56:42.529Z,85.74
2018-01-13T18:59:10.187Z,86.00
2018-01-13T19:01:37.871Z,86.17
2018-01-13T19:04:05.685Z,86.18
2018-01-13T19:06:33.480Z,86.22
2018-01-13T19:09:01.404Z,86.51
2018-01-13T19:11:29.479Z,86.46
2018-01-13T19:13:57.268Z,86.48
2018-01-13T19:16:24.954Z,86.53
2018-01-13T19:18:52.587Z,86.60
2018-01-13T19:21:20.159Z,86.37
2018-01-13T19:23:48.114Z,86.68
2018-01-13T19:26:15.912Z,86.77
2018-01-13T19:28:43.947Z,86.94
2018-01-13T19:31:11.534Z,86.87
2018-01-13T19:33:39.175Z,86.86
2018-01-13T19:36:06.829Z,86.95
2018-01-13T19:38:34.493Z,86.92
2018-01-13T19:41:02.057Z,86.93
2018-01-13T19:43:29.884Z,86.86
2018-01-13T19:45:57.546Z,86.38
2018-01-13T19:48:26.414Z,86.53
2018-01-13T19:50:54.354Z,86.53
2018-01-13T19:53:21.964Z,86.46
2018-01-13T19:55:49.571Z,86.57
2018-01-13T19:58:17.527Z,86.61
2018-01-13T20:00:45.176Z,86.47
2018-01-13T20:03:12.763Z,86.47
2018-01-13T20:05:40.364Z,86.12
2018-01-13T20:08:08.556Z,86.06
2018-01-13T20:10:36.358Z,86.24
2018-01-13T20:13:04.045Z,86.42
2018-01-13T20:15:31.730Z,86.32
2018-01-13T20:17:59.745Z,86.42
2018-01-13T20:20:27.409Z,86.42
2018-01-13T20:22:55.018Z,86.19
2018-01-13T20:25:22.658Z,86.02
2018-01-13T20:27:50.595Z,86.00
2018-01-13T20:30:18.212Z,86.00
2018-01-13T20:32:46.120Z,85.96
2018-01-13T20:35:14.093Z,86.08
2018-01-13T20:37:41.766Z,85.91
2018-01-13T20:40:09.410Z,85.82
2018-01-13T20:42:37.035Z,85.75
2018-01-13T20:45:04.651Z,85.90
2018-01-13T20:47:32.410Z,85.87
2018-01-13T20:50:00.068Z,85.78
2018-01-13T20:52:27.900Z,85.59
2018-01-13T20:54:55.598Z,85.64
2018-01-13T20:57:23.563Z,85.29
2018-01-13T20:59:51.192Z,85.42
2018-01-13T21:02:18.876Z,85.57
2018-01-13T21:04:46.485Z,85.68
2018-01-13T21:07:14.098Z,85.53
2018-01-13T21:09:42.172Z,85.46
2018-01-13T21:12:09.766Z,85.50
2018-01-13T21:14:37.380Z,85.36
2018-01-13T21:17:05.173Z,85.36
2018-01-13T21:19:32.838Z,85.11
2018-01-13T21:22:00.529Z,84.93
2018-01-13T21:24:28.165Z,84.69
2018-01-13T21:26:55.762Z,84.55
2018-01-13T21:29:23.794Z,84.60
2018-01-13T21:31:51.465Z,84.55
2018-01-13T21:34:19.156Z,84.58
2018-01-13T21:36:46.754Z,84.24
2018-01-13T21:39:14.327Z,83.78
2018-01-13T21:41:42.219Z,83.65
2018-01-13T21:44:10.130Z,83.41
2018-01-13T21:46:37.820Z,82.95
2018-01-13T21:49:05.522Z,82.62
2018-01-13T21:51:33.173Z,82.46
2018-01-13T21:54:00.781Z,82.64
2018-01-13T21:56:28.373Z,82.54
2018-01-13T21:58:56.384Z,82.68
2018-01-13T22:01:23.949Z,82.79
2018-01-13T22:03:51.553Z,82.66
2018-01-13T22:06:19.417Z,82.84
2018-01-13T22:08:47.417Z,83.12
2018-01-13T22:11:15.008Z,83.45
2018-01-13T22:13:42.940Z,83.88
2018-01-13T22:16:10.707Z,83.49
2018-01-13T22:18:38.518Z,83.14
2018-01-13T22:21:06.245Z,83.20
2018-01-13T22:23:33.984Z,83.20
2018-01-13T22:26:01.545Z,82.92
2018-01-13T22:28:29.131Z,82.74
2018-01-13T22:30:56.697Z,82.82
2018-01-13T22:33:24.642Z,82.99
2018-01-13T22:35:52.248Z,82.54
2018-01-13T22:38:19.887Z,82.67
2018-01-13T22:40:47.587Z,82.37
2018-01-13T22:43:15.429Z,82.35
2018-01-13T22:45:43.086Z,82.64
2018-01-13T22:48:10.720Z,82.28
2018-01-13T22:50:38.727Z,82.37
2018-01-13T22:53:06.306Z,82.53
2018-01-13T22:55:34.005Z,82.57
2018-01-13T22:58:01.622Z,82.05
2018-01-13T23:00:32.993Z,81.95
2018-01-13T23:03:00.578Z,82.26
2018-01-13T23:05:28.254Z,82.33
2018-01-13T23:07:56.115Z,82.54
2018-01-13T23:10:23.741Z,82.61
2018-01-13T23:12:51.738Z,82.25
2018-01-13T23:15:19.329Z,81.96
2018-01-13T23:17:46.951Z,81.51
2018-01-13T23:20:14.624Z,81.68
2018-01-13T23:22:42.239Z,81.76
2018-01-13T23:25:09.884Z,81.99
2018-01-13T23:27:37.513Z,82.05
2018-01-13T23:30:05.220Z,81.68
2018-01-13T23:32:32.828Z,81.08
2018-01-13T23:35:00.959Z,80.85
2018-01-13T23:37:28.790Z,80.70
2018-01-13T23:39:56.653Z,80.83
2018-01-13T23:42:24.292Z,80.87
2018-01-13T23:44:51.932Z,80.92
2018-01-13T23:47:19.765Z,80.99
2018-01-13T23:49:47.741Z,80.91
2018-01-13T23:52:15.432Z,80.89
2018-01-13T23:54:43.059Z,81.00
2018-01-13T23:57:10.682Z,80.99
2018-01-13T23:59:38.462Z,80.17
